Time,TemperatureF,DewpointF,PressureIn,WindDirection,WindDirectionDegrees,WindSpeedMPH,WindSpeedGustMPH,Humidity,HourlyPrecipIn,Conditions,Clouds,dailyrainin,SoftwareType,DateUTC
2013-02-25 15:51:00,-999.0,-99.9,0.00,North,-999,-999.0,-999.0,-999,0.00,,,0.05,weatherlink.com 1.10,2013-02-25 21:51:00,
2013-02-25 15:55:00,58.0,-99.9,29.45,North,32767,-999.0,0.0,255,-99.99,,,0.05,Wunderground v.1.15,2013-02-25 21:55:00,
2013-02-25 15:58:00,57.3,35.0,29.45,SSW,196,5.0,5.0,43,0.00,,,0.05,Wunderground v.1.15,2013-02-25 21:58:00,
2013-02-25 16:02:00,57.3,35.6,29.45,SSW,211,3.0,3.0,44,0.00,,,0.05,Wunderground v.1.15,2013-02-25 22:02:00,
2013-02-25 16:08:00,57.1,34.8,29.45,SW,236,4.0,4.0,43,0.00,,,0.05,Wunderground v.1.15,2013-02-25 22:08:00,
2013-02-25 16:14:00,57.0,33.5,29.45,SW,234,5.0,8.0,41,0.00,,,0.05,Wunderground v.1.15,2013-02-25 22:14:00,
2013-02-25 16:20:00,56.3,32.9,29.45,SSW,205,5.0,14.0,41,0.00,,,0.05,Wunderground v.1.15,2013-02-25 22:20:00,
2013-02-25 16:26:00,55.4,32.7,29.46,SSW,200,5.0,6.0,42,0.00,,,0.05,Wunderground v.1.15,2013-02-25 22:26:00,
2013-02-25 16:32:00,54.9,32.8,29.46,SW,216,6.0,6.0,43,0.00,,,0.05,Wunderground v.1.15,2013-02-25 22:32:00,
2013-02-25 16:37:00,54.9,32.2,29.46,NE,49,5.0,6.0,42,0.00,,,0.05,Wunderground v.1.15,2013-02-25 22:37:00,
2013-02-25 16:42:00,54.5,33.0,29.46,SW,217,5.0,5.0,44,0.00,,,0.05,Wunderground v.1.15,2013-02-25 22:42:00,
2013-02-25 16:48:00,53.7,31.7,29.47,WNW,287,5.0,13.0,43,0.00,,,0.05,Wunderground v.1.15,2013-02-25 22:48:00,
2013-02-25 16:54:00,53.6,32.2,29.47,SSW,212,5.0,13.0,44,0.00,,,0.05,Wunderground v.1.15,2013-02-25 22:54:00,
2013-02-25 16:59:00,53.5,31.0,29.47,SW,220,5.0,13.0,42,0.00,,,0.05,Wunderground v.1.15,2013-02-25 22:59:00,
2013-02-25 17:05:00,53.4,30.9,29.47,SW,235,5.0,10.0,42,0.00,,,0.05,Wunderground v.1.15,2013-02-25 23:05:00,
2013-02-25 17:10:00,52.3,31.0,29.47,West,268,6.0,10.0,44,0.00,,,0.05,Wunderground v.1.15,2013-02-25 23:10:00,
2013-02-25 17:15:00,51.8,31.7,29.48,SW,217,6.0,8.0,46,0.00,,,0.05,Wunderground v.1.15,2013-02-25 23:15:00,
2013-02-25 17:21:00,51.5,32.0,29.47,SW,223,1.0,13.0,47,0.00,,,0.05,weatherlink.com 1.10,2013-02-25 23:21:00,
2013-02-25 17:26:00,51.3,32.3,29.47,South,175,4.0,5.0,48,0.00,,,0.05,Wunderground v.1.15,2013-02-25 23:26:00,
2013-02-25 17:32:00,50.5,32.0,29.48,SSW,200,4.0,5.0,49,0.00,,,0.05,Wunderground v.1.15,2013-02-25 23:32:00,
2013-02-25 17:38:00,49.8,31.9,29.48,SW,223,5.0,10.0,50,0.00,,,0.05,Wunderground v.1.15,2013-02-25 23:38:00,
2013-02-25 17:43:00,49.6,32.2,29.48,SW,219,5.0,9.0,51,0.00,,,0.05,Wunderground v.1.15,2013-02-25 23:43:00,
2013-02-25 17:48:00,49.5,31.6,29.48,SSE,165,5.0,9.0,50,0.00,,,0.05,Wunderground v.1.15,2013-02-25 23:48:00,
2013-02-25 17:54:00,49.4,32.5,29.48,SSW,192,5.0,11.0,52,0.00,,,0.05,Wunderground v.1.15,2013-02-25 23:54:00,
2013-02-25 18:00:00,49.1,32.7,29.49,WSW,256,5.0,7.0,53,0.00,,,0.05,Wunderground v.1.15,2013-02-26 00:00:00,
2013-02-25 18:06:00,48.5,33.1,29.49,SE,134,4.0,7.0,55,0.00,,,0.05,Wunderground v.1.15,2013-02-26 00:06:00,
2013-02-25 18:11:00,48.0,33.0,29.49,WSW,257,5.0,8.0,56,0.00,,,0.05,Wunderground v.1.15,2013-02-26 00:11:00,
2013-02-25 18:16:00,47.7,34.1,29.50,SW,214,4.0,8.0,59,0.00,,,0.05,Wunderground v.1.15,2013-02-26 00:16:00,
2013-02-25 18:21:00,47.3,33.7,29.50,SSW,192,4.0,5.0,59,0.00,,,0.05,Wunderground v.1.15,2013-02-26 00:21:00,
2013-02-25 18:27:00,46.9,34.1,29.50,West,270,4.0,8.0,61,0.00,,,0.05,Wunderground v.1.15,2013-02-26 00:27:00,
2013-02-25 18:33:00,46.5,34.2,29.50,SSE,161,4.0,5.0,62,0.00,,,0.05,Wunderground v.1.15,2013-02-26 00:33:00,
2013-02-25 18:39:00,46.2,34.3,29.50,SSW,212,3.0,6.0,63,0.00,,,0.05,Wunderground v.1.15,2013-02-26 00:39:00,
2013-02-25 18:44:00,46.1,34.6,29.50,SSW,211,3.0,6.0,64,0.00,,,0.05,Wunderground v.1.15,2013-02-26 00:44:00,
2013-02-25 18:49:00,46.2,35.1,29.50,SSW,196,2.0,8.0,65,0.00,,,0.05,Wunderground v.1.15,2013-02-26 00:49:00,
2013-02-25 18:55:00,46.3,35.6,29.50,SSW,211,3.0,9.0,66,0.00,,,0.05,Wunderground v.1.15,2013-02-26 00:55:00,
2013-02-25 19:00:00,46.2,35.8,29.50,SSW,213,3.0,3.0,67,0.00,,,0.05,Wunderground v.1.15,2013-02-26 01:00:00,
2013-02-25 19:06:00,46.1,36.1,29.50,SSW,194,3.0,5.0,68,0.00,,,0.05,Wunderground v.1.15,2013-02-26 01:06:00,
2013-02-25 19:11:00,46.0,36.4,29.50,SSE,149,3.0,3.0,69,0.00,,,0.05,Wunderground v.1.15,2013-02-26 01:11:00,
2013-02-25 19:16:00,45.9,36.7,29.50,WNW,296,2.0,4.0,70,0.00,,,0.05,Wunderground v.1.15,2013-02-26 01:16:00,
2013-02-25 19:22:00,45.9,37.0,29.50,West,275,3.0,9.0,71,0.00,,,0.05,weatherlink.com 1.10,2013-02-26 01:22:00,
2013-02-25 19:27:00,45.9,37.7,29.51,West,268,4.0,7.0,73,0.00,,,0.05,Wunderground v.1.15,2013-02-26 01:27:00,
2013-02-25 19:33:00,45.2,37.4,29.51,West,271,7.0,8.0,74,0.00,,,0.05,Wunderground v.1.15,2013-02-26 01:33:00,
2013-02-25 19:39:00,44.2,36.8,29.52,WNW,282,7.0,12.0,75,0.00,,,0.05,Wunderground v.1.15,2013-02-26 01:39:00,
2013-02-25 19:45:00,43.2,36.5,29.52,South,172,7.0,7.0,77,0.00,,,0.05,Wunderground v.1.15,2013-02-26 01:45:00,
2013-02-25 19:50:00,42.7,36.3,29.53,SW,217,5.0,5.0,78,0.00,,,0.05,Wunderground v.1.15,2013-02-26 01:50:00,
2013-02-25 19:56:00,41.9,36.5,29.53,West,261,5.0,12.0,81,0.00,,,0.05,Wunderground v.1.15,2013-02-26 01:56:00,
2013-02-25 20:01:00,41.0,35.9,29.53,WSW,250,7.0,7.0,82,0.00,,,0.05,Wunderground v.1.15,2013-02-26 02:01:00,
2013-02-25 20:07:00,40.3,36.0,29.54,WSW,248,4.0,16.0,85,0.00,,,0.05,weatherlink.com 1.10,2013-02-26 02:07:00,
2013-02-25 20:12:00,39.9,35.8,29.54,West,274,7.0,14.0,85,0.00,,,0.05,Wunderground v.1.15,2013-02-26 02:12:00,
2013-02-25 20:18:00,39.6,35.5,29.55,WNW,293,8.0,14.0,85,0.00,,,0.05,Wunderground v.1.15,2013-02-26 02:18:00,
2013-02-25 20:23:00,39.4,35.0,29.55,WNW,300,9.0,13.0,84,0.00,,,0.05,Wunderground v.1.15,2013-02-26 02:23:00,
2013-02-25 20:28:00,39.3,34.6,29.55,NW,309,10.0,18.0,83,0.00,,,0.05,Wunderground v.1.15,2013-02-26 02:28:00,
2013-02-25 20:33:00,39.4,34.7,29.55,WNW,290,10.0,13.0,83,0.00,,,0.05,Wunderground v.1.15,2013-02-26 02:33:00,
2013-02-25 20:39:00,39.5,34.0,29.55,SW,222,5.0,23.0,81,0.00,,,0.05,weatherlink.com 1.10,2013-02-26 02:39:00,
2013-02-25 20:44:00,39.6,34.2,29.55,WSW,257,11.0,11.0,81,0.00,,,0.05,Wunderground v.1.15,2013-02-26 02:44:00,
2013-02-25 20:50:00,39.7,34.3,29.56,WNW,284,10.0,11.0,81,0.00,,,0.05,Wunderground v.1.15,2013-02-26 02:50:00,
2013-02-25 20:55:00,39.8,34.1,29.56,NNW,340,10.0,15.0,80,0.00,,,0.05,Wunderground v.1.15,2013-02-26 02:55:00,
2013-02-25 21:00:00,40.0,34.3,29.57,WNW,286,11.0,12.0,80,0.00,,,0.05,Wunderground v.1.15,2013-02-26 03:00:00,
2013-02-25 21:06:00,40.2,34.5,29.57,NW,326,10.0,14.0,80,0.00,,,0.05,Wunderground v.1.15,2013-02-26 03:06:00,
2013-02-25 21:12:00,40.3,34.3,29.57,WNW,290,9.0,12.0,79,0.00,,,0.05,Wunderground v.1.15,2013-02-26 03:12:00,
2013-02-25 21:18:00,40.5,34.2,29.57,West,260,10.0,15.0,78,0.00,,,0.05,Wunderground v.1.15,2013-02-26 03:18:00,
2013-02-25 21:23:00,40.6,34.3,29.57,NW,305,11.0,13.0,78,0.00,,,0.05,Wunderground v.1.15,2013-02-26 03:23:00,
2013-02-25 21:28:00,40.7,34.4,29.57,NW,304,11.0,15.0,78,0.00,,,0.05,Wunderground v.1.15,2013-02-26 03:28:00,
2013-02-25 21:34:00,40.9,34.2,29.58,West,261,11.0,17.0,77,0.00,,,0.05,Wunderground v.1.15,2013-02-26 03:34:00,
2013-02-25 21:40:00,41.0,34.7,29.58,NW,325,11.0,17.0,78,0.00,,,0.05,Wunderground v.1.15,2013-02-26 03:40:00,
2013-02-25 21:46:00,41.0,34.3,29.59,West,277,11.0,20.0,77,0.00,,,0.05,Wunderground v.1.15,2013-02-26 03:46:00,
2013-02-25 21:51:00,41.0,34.3,29.59,NW,306,11.0,21.0,77,0.00,,,0.05,Wunderground v.1.15,2013-02-26 03:51:00,
2013-02-25 21:56:00,41.0,34.3,29.59,North,5,11.0,21.0,77,0.00,,,0.05,Wunderground v.1.15,2013-02-26 03:56:00,
2013-02-25 22:02:00,41.0,34.7,29.59,NW,325,11.0,18.0,78,0.00,,,0.05,Wunderground v.1.15,2013-02-26 04:02:00,
2013-02-25 22:08:00,41.0,34.0,29.60,NW,309,12.0,24.0,77,0.00,,,0.05,weatherlink.com 1.10,2013-02-26 04:08:00,
2013-02-25 22:13:00,41.1,34.8,29.60,NNW,346,10.0,12.0,78,0.00,,,0.05,Wunderground v.1.15,2013-02-26 04:13:00,
2013-02-25 22:18:00,41.1,34.4,29.60,WNW,294,11.0,20.0,77,0.00,,,0.05,Wunderground v.1.15,2013-02-26 04:18:00,
2013-02-25 22:23:00,40.9,34.2,29.60,NNW,344,13.0,17.0,77,0.00,,,0.05,Wunderground v.1.15,2013-02-26 04:23:00,
2013-02-25 22:29:00,40.7,34.4,29.61,WNW,303,13.0,20.0,78,0.00,,,0.05,Wunderground v.1.15,2013-02-26 04:29:00,
2013-02-25 22:35:00,40.6,34.3,29.61,WNW,299,11.0,21.0,78,0.00,,,0.05,Wunderground v.1.15,2013-02-26 04:35:00,
2013-02-25 22:40:00,40.7,34.7,29.61,WNW,288,11.0,11.0,79,0.00,,,0.05,Wunderground v.1.15,2013-02-26 04:40:00,
2013-02-25 22:46:00,40.7,34.7,29.61,West,273,12.0,17.0,79,0.00,,,0.05,Wunderground v.1.15,2013-02-26 04:46:00,
2013-02-25 22:52:00,40.6,34.9,29.62,WNW,288,12.0,19.0,80,0.00,,,0.05,Wunderground v.1.15,2013-02-26 04:52:00,
2013-02-25 22:57:00,40.4,35.0,29.62,West,278,12.0,19.0,81,0.00,,,0.05,Wunderground v.1.15,2013-02-26 04:57:00,
2013-02-25 23:00:00,40.4,35.0,29.62,West,281,12.0,17.0,81,0.00,,,0.05,Wunderground v.1.15,2013-02-26 05:00:00,
2013-02-25 23:01:00,40.4,35.0,29.63,WSW,251,12.0,21.0,81,0.00,,,0.05,Wunderground v.1.15,2013-02-26 05:01:00,
2013-02-25 23:07:00,40.4,34.7,29.63,WNW,285,13.0,21.0,80,0.00,,,0.05,Wunderground v.1.15,2013-02-26 05:07:00,
2013-02-25 23:09:00,40.4,35.0,29.63,WNW,303,12.0,21.0,81,0.00,,,0.05,Wunderground v.1.15,2013-02-26 05:09:00,
2013-02-25 23:14:00,40.4,34.7,29.63,WNW,296,12.0,18.0,80,0.00,,,0.05,Wunderground v.1.15,2013-02-26 05:14:00,
2013-02-25 23:20:00,40.4,34.7,29.63,NW,316,12.0,16.0,80,0.00,,,0.05,Wunderground v.1.15,2013-02-26 05:20:00,
2013-02-25 23:25:00,40.4,34.4,29.63,WNW,284,12.0,22.0,79,0.00,,,0.05,Wunderground v.1.15,2013-02-26 05:25:00,
2013-02-25 23:31:00,40.4,34.4,29.64,NW,320,12.0,14.0,79,0.00,,,0.05,Wunderground v.1.15,2013-02-26 05:31:00,
2013-02-25 23:36:00,40.5,34.5,29.64,WNW,284,10.0,16.0,79,0.00,,,0.05,Wunderground v.1.15,2013-02-26 05:36:00,
2013-02-25 23:41:00,40.6,34.6,29.64,NW,323,11.0,18.0,79,0.00,,,0.05,Wunderground v.1.15,2013-02-26 05:41:00,
2013-02-25 23:46:00,40.6,34.3,29.64,WNW,286,12.0,19.0,78,0.00,,,0.05,Wunderground v.1.15,2013-02-26 05:46:00,
2013-02-25 23:51:00,40.6,34.3,29.64,SSW,201,12.0,22.0,78,0.00,,,0.05,Wunderground v.1.15,2013-02-26 05:51:00,
2013-02-25 23:56:00,40.7,34.4,29.64,WNW,284,11.0,22.0,78,0.00,,,0.05,Wunderground v.1.15,2013-02-26 05:56:00,